sensor_id;sensor_type;location;lat;lon;timestamp;temperature;humidity
75113;DHT22;63692;47.338;8.520;2023-03-18T18:22:31;14.70;73.00
75113;DHT22;63692;47.338;8.520;2023-03-18T18:24:57;14.70;72.00
75113;DHT22;63692;47.338;8.520;2023-03-18T18:27:24;14.60;71.50
75113;DHT22;63692;47.338;8.520;2023-03-18T18:29:51;14.50;70.20
75113;DHT22;63692;47.338;8.520;2023-03-18T18:32:19;14.40;72.50
75113;DHT22;63692;47.338;8.520;2023-03-18T18:34:49;14.40;72.20
75113;DHT22;63692;47.338;8.520;2023-03-18T18:37:15;14.40;73.40
75113;DHT22;63692;47.338;8.520;2023-03-18T18:39:40;14.40;73.00
75113;DHT22;63692;47.338;8.520;2023-03-18T18:42:06;14.30;73.00
75113;DHT22;63692;47.338;8.520;2023-03-18T18:44:32;14.30;74.20
75113;DHT22;63692;47.338;8.520;2023-03-18T18:52:00;14.20;74.40
75113;DHT22;63692;47.338;8.520;2023-03-18T18:54:26;14.10;74.70
75113;DHT22;63692;47.338;8.520;2023-03-18T18:56:52;14.10;77.70
75113;DHT22;63692;47.338;8.520;2023-03-18T18:59:26;14.00;76.50
75113;DHT22;63692;47.338;8.520;2023-03-18T19:01:55;14.00;76.60
75113;DHT22;63692;47.338;8.520;2023-03-18T19:04:21;13.90;75.50
75113;DHT22;63692;47.338;8.520;2023-03-18T19:06:47;14.00;73.30
75113;DHT22;63692;47.338;8.520;2023-03-18T19:09:25;14.10;68.60
75113;DHT22;63692;47.338;8.520;2023-03-18T19:11:53;14.20;67.90
75113;DHT22;63692;47.338;8.520;2023-03-18T19:14:29;14.30;68.20
75113;DHT22;63692;47.338;8.520;2023-03-18T19:16:56;14.30;67.10
75113;DHT22;63692;47.338;8.520;2023-03-18T19:19:32;14.30;64.50
75113;DHT22;63692;47.338;8.520;2023-03-18T19:21:58;14.40;65.10
75113;DHT22;63692;47.338;8.520;2023-03-18T19:24:26;14.40;63.70
75113;DHT22;63692;47.338;8.520;2023-03-18T19:26:54;14.40;63.60
75113;DHT22;63692;47.338;8.520;2023-03-18T19:29:20;14.40;61.70
75113;DHT22;63692;47.338;8.520;2023-03-18T19:31:46;14.50;61.10
75113;DHT22;63692;47.338;8.520;2023-03-18T19:34:16;14.40;62.20
75113;DHT22;63692;47.338;8.520;2023-03-18T19:36:43;14.40;61.90
75113;DHT22;63692;47.338;8.520;2023-03-18T19:39:14;14.40;61.00
75113;DHT22;63692;47.338;8.520;2023-03-18T19:41:41;14.50;59.40
75113;DHT22;63692;47.338;8.520;2023-03-18T19:44:17;14.40;59.40
75113;DHT22;63692;47.338;8.520;2023-03-18T19:46:44;14.40;56.90
75113;DHT22;63692;47.338;8.520;2023-03-18T19:49:23;14.40;58.80
75113;DHT22;63692;47.338;8.520;2023-03-18T19:51:49;14.40;59.90
75113;DHT22;63692;47.338;8.520;2023-03-18T19:54:27;14.40;57.70
75113;DHT22;63692;47.338;8.520;2023-03-18T19:56:54;14.40;56.60
75113;DHT22;63692;47.338;8.520;2023-03-18T19:59:23;14.40;55.30
75113;DHT22;63692;47.338;8.520;2023-03-18T20:01:49;14.40;55.50
75113;DHT22;63692;47.338;8.520;2023-03-18T20:04:17;14.40;55.30
75113;DHT22;63692;47.338;8.520;2023-03-18T20:06:43;14.30;54.70
75113;DHT22;63692;47.338;8.520;2023-03-18T20:09:12;14.30;54.20
75113;DHT22;63692;47.338;8.520;2023-03-18T20:11:38;14.30;54.20
75113;DHT22;63692;47.338;8.520;2023-03-18T20:14:26;14.30;54.40
75113;DHT22;63692;47.338;8.520;2023-03-18T20:19:20;14.30;53.50
75113;DHT22;63692;47.338;8.520;2023-03-18T20:21:47;14.30;53.80
75113;DHT22;63692;47.338;8.520;2023-03-18T20:24:16;14.30;53.70
75113;DHT22;63692;47.338;8.520;2023-03-18T20:26:43;14.30;53.90
75113;DHT22;63692;47.338;8.520;2023-03-18T20:29:16;14.20;54.00
75113;DHT22;63692;47.338;8.520;2023-03-18T20:31:42;14.20;54.40
75113;DHT22;63692;47.338;8.520;2023-03-18T20:34:08;14.20;54.90
75113;DHT22;63692;47.338;8.520;2023-03-18T20:36:34;14.20;55.10
75113;DHT22;63692;47.338;8.520;2023-03-18T20:38:59;14.20;55.40
75113;DHT22;63692;47.338;8.520;2023-03-18T20:41:25;14.10;55.30
75113;DHT22;63692;47.338;8.520;2023-03-18T20:43:50;14.10;56.00
75113;DHT22;63692;47.338;8.520;2023-03-18T20:46:16;14.10;56.00
75113;DHT22;63692;47.338;8.520;2023-03-18T20:48:42;14.00;56.10
75113;DHT22;63692;47.338;8.520;2023-03-18T20:54:19;14.00;56.50
75113;DHT22;63692;47.338;8.520;2023-03-18T20:56:47;14.00;56.30
75113;DHT22;63692;47.338;8.520;2023-03-18T20:59:13;13.90;56.60
75113;DHT22;63692;47.338;8.520;2023-03-18T21:01:39;13.90;56.40
75113;DHT22;63692;47.338;8.520;2023-03-18T21:04:06;13.90;56.70
75113;DHT22;63692;47.338;8.520;2023-03-18T21:06:34;13.90;56.50
75113;DHT22;63692;47.338;8.520;2023-03-18T21:09:00;13.90;56.30
75113;DHT22;63692;47.338;8.520;2023-03-18T21:11:30;13.90;56.20
75113;DHT22;63692;47.338;8.520;2023-03-18T21:13:59;13.90;56.20
75113;DHT22;63692;47.338;8.520;2023-03-18T21:16:24;13.80;57.00
75113;DHT22;63692;47.338;8.520;2023-03-18T21:18:50;13.80;56.00
75113;DHT22;63692;47.338;8.520;2023-03-18T21:21:30;13.80;56.10
75113;DHT22;63692;47.338;8.520;2023-03-18T21:23:57;13.80;55.80
75113;DHT22;63692;47.338;8.520;2023-03-18T21:26:23;13.80;55.90
75113;DHT22;63692;47.338;8.520;2023-03-18T21:28:49;13.80;56.10
75113;DHT22;63692;47.338;8.520;2023-03-18T21:31:27;13.80;56.40
75113;DHT22;63692;47.338;8.520;2023-03-18T21:33:55;13.70;57.10
75113;DHT22;63692;47.338;8.520;2023-03-18T21:36:21;13.70;56.40
